Аэропорт: Абакан. Абакан

ICAO: UNAA

METAR:
2021-04-21 19:30:00
UNAA 211930Z 32002MPS CAVOK M04/M14 Q1024 R02/190060 NOSIG RMK QFE745
METAR:
2021-04-21 16:53:00
TAF UNAA 211653Z 2118/2218 35003G10MPS 9999 SCT030 TEMPO 2121/2201 01008G13MPS BECMG 2201/2203 01008G15MPS BECMG 2203/2205 BKN016CB TEMPO 2206/2218 6000 -SHSN